createdAt,value
2018-01-29T00:00:41.429Z,6.43
2018-01-29T00:01:41.500Z,6.42
2018-01-29T00:02:40.915Z,6.42
2018-01-29T00:03:41.342Z,6.44
2018-01-29T00:04:40.751Z,6.44
2018-01-29T00:05:41.645Z,6.46
2018-01-29T00:06:41.475Z,6.43
2018-01-29T00:07:40.382Z,6.49
2018-01-29T00:08:41.068Z,6.51
2018-01-29T00:09:41.093Z,6.47
2018-01-29T00:10:40.423Z,6.51
2018-01-29T00:11:41.642Z,6.47
2018-01-29T00:12:40.694Z,6.49
2018-01-29T00:13:40.500Z,6.51
2018-01-29T00:14:40.431Z,6.49
2018-01-29T00:15:40.434Z,6.48
2018-01-29T00:16:40.769Z,6.54
2018-01-29T00:17:41.890Z,6.53
2018-01-29T00:18:41.884Z,6.53
2018-01-29T00:19:41.944Z,6.52
2018-01-29T00:20:40.890Z,6.52
2018-01-29T00:21:40.392Z,6.49
2018-01-29T00:22:40.713Z,6.52
2018-01-29T00:23:41.487Z,6.51
2018-01-29T00:24:41.258Z,6.53
2018-01-29T00:25:40.897Z,6.52
2018-01-29T00:26:40.305Z,6.47
2018-01-29T00:27:40.950Z,6.52
2018-01-29T00:28:41.334Z,6.49
2018-01-29T00:29:41.226Z,6.51
2018-01-29T00:30:40.035Z,6.48
2018-01-29T00:31:39.890Z,6.48
2018-01-29T00:32:39.300Z,6.47
2018-01-29T00:33:40.852Z,6.5
2018-01-29T00:34:39.237Z,6.49
2018-01-29T00:35:40.166Z,6.47
2018-01-29T00:36:40.933Z,6.47
2018-01-29T00:37:40.718Z,6.49
2018-01-29T00:38:40.719Z,6.49
2018-01-29T00:39:40.817Z,6.49
2018-01-29T00:40:40.715Z,6.46
2018-01-29T00:41:41.009Z,6.46
2018-01-29T00:42:40.546Z,6.48
2018-01-29T00:43:39.522Z,6.51
2018-01-29T00:44:40.936Z,6.48
2018-01-29T00:45:41.928Z,6.48
2018-01-29T00:46:42.483Z,6.47
2018-01-29T00:47:39.205Z,6.49
2018-01-29T00:48:40.801Z,6.47
2018-01-29T00:49:40.753Z,6.48
2018-01-29T00:50:40.633Z,6.48
2018-01-29T00:51:40.591Z,6.47
2018-01-29T00:52:39.152Z,6.51
2018-01-29T00:53:39.824Z,6.47
2018-01-29T00:54:41.053Z,6.47
2018-01-29T00:55:39.457Z,6.48
2018-01-29T00:56:39.876Z,6.46
2018-01-29T00:57:39.480Z,6.45
2018-01-29T00:58:39.486Z,6.43
2018-01-29T00:59:42.131Z,6.46
2018-01-29T01:00:39.889Z,6.49
2018-01-29T01:01:41.352Z,6.44
2018-01-29T01:02:39.533Z,6.44
2018-01-29T01:03:39.011Z,6.42
2018-01-29T01:04:39.898Z,6.44
2018-01-29T01:05:41.751Z,6.47
2018-01-29T01:06:39.265Z,6.44
2018-01-29T01:07:39.275Z,6.45
2018-01-29T01:08:39.289Z,6.46
2018-01-29T01:09:39.247Z,6.43
2018-01-29T01:10:39.734Z,6.46
2018-01-29T01:11:39.965Z,6.43
2018-01-29T01:12:39.272Z,6.42
2018-01-29T01:13:39.925Z,6.41
2018-01-29T01:14:40.276Z,6.41
2018-01-29T01:15:39.809Z,6.45
2018-01-29T01:16:39.155Z,6.4
2018-01-29T01:17:42.115Z,6.44
2018-01-29T01:18:39.079Z,6.42
2018-01-29T01:19:41.669Z,6.43
2018-01-29T01:20:40.128Z,6.41
2018-01-29T01:21:40.578Z,6.42
2018-01-29T01:22:40.706Z,6.42
2018-01-29T01:23:41.058Z,6.42
2018-01-29T01:24:39.820Z,6.44
2018-01-29T01:25:41.310Z,6.43
2018-01-29T01:26:42.649Z,6.38
2018-01-29T01:27:40.701Z,6.41
2018-01-29T01:28:40.385Z,6.42
2018-01-29T01:29:39.216Z,6.42
2018-01-29T01:30:41.241Z,6.37
2018-01-29T01:31:40.604Z,6.41
2018-01-29T01:32:39.862Z,6.41
2018-01-29T01:33:39.820Z,6.39
2018-01-29T01:34:39.077Z,6.37
2018-01-29T01:35:39.957Z,6.39
2018-01-29T01:36:41.387Z,6.4
2018-01-29T01:37:40.870Z,6.42
2018-01-29T01:38:40.518Z,6.39
2018-01-29T01:39:39.382Z,6.42
2018-01-29T01:40:40.229Z,6.41
2018-01-29T01:41:41.440Z,6.36
2018-01-29T01:42:42.723Z,6.41
2018-01-29T01:43:39.991Z,6.37
2018-01-29T01:44:40.192Z,6.38
2018-01-29T01:45:40.097Z,6.41
2018-01-29T01:46:39.568Z,6.39
2018-01-29T01:47:40.529Z,6.43
2018-01-29T01:48:40.298Z,6.42
2018-01-29T01:49:39.402Z,6.42
2018-01-29T01:50:39.936Z,6.44
2018-01-29T01:51:39.242Z,6.42
2018-01-29T01:52:39.574Z,6.44
2018-01-29T01:53:39.419Z,6.42
2018-01-29T01:54:39.841Z,6.47
2018-01-29T01:55:39.896Z,6.42
2018-01-29T01:56:39.288Z,6.46
2018-01-29T01:57:39.677Z,6.45
2018-01-29T01:58:39.384Z,6.46
2018-01-29T01:59:40.022Z,6.47
2018-01-29T02:00:39.529Z,6.48
2018-01-29T02:01:41.108Z,6.47
2018-01-29T02:02:40.237Z,6.47
2018-01-29T02:03:41.117Z,6.49
2018-01-29T02:04:40.852Z,6.49
2018-01-29T02:05:39.391Z,6.49
2018-01-29T02:06:40.001Z,6.48
2018-01-29T02:07:39.142Z,6.52
2018-01-29T02:08:40.276Z,6.51
2018-01-29T02:09:40.033Z,6.51
2018-01-29T02:10:39.247Z,6.54
2018-01-29T02:11:39.434Z,6.54
2018-01-29T02:12:45.462Z,6.54
2018-01-29T02:13:41.483Z,6.56
2018-01-29T02:14:41.541Z,6.56
2018-01-29T02:15:41.426Z,6.57
2018-01-29T02:16:40.070Z,6.58
2018-01-29T02:17:41.184Z,6.6
2018-01-29T02:18:40.069Z,6.58
2018-01-29T02:19:40.762Z,6.58
2018-01-29T02:20:40.566Z,6.56
2018-01-29T02:21:40.261Z,6.58
2018-01-29T02:22:40.789Z,6.63
2018-01-29T02:23:40.999Z,6.61
2018-01-29T02:24:40.732Z,6.56
2018-01-29T02:25:40.570Z,6.61
2018-01-29T02:26:43.057Z,6.62
2018-01-29T02:27:39.953Z,6.62
2018-01-29T02:28:42.201Z,6.61
2018-01-29T02:29:39.988Z,6.56
2018-01-29T02:30:39.632Z,6.61
2018-01-29T02:31:39.462Z,6.59
2018-01-29T02:32:40.452Z,6.62
2018-01-29T02:33:39.457Z,6.61
2018-01-29T02:34:42.430Z,6.64
2018-01-29T02:35:40.018Z,6.61
2018-01-29T02:36:41.343Z,6.64
2018-01-29T02:37:40.404Z,6.62
2018-01-29T02:38:39.351Z,6.6
2018-01-29T02:39:39.445Z,6.62
2018-01-29T02:40:40.231Z,6.62
2018-01-29T02:41:41.542Z,6.61
2018-01-29T02:42:40.300Z,6.6
2018-01-29T02:43:41.115Z,6.62
2018-01-29T02:44:41.581Z,6.6
2018-01-29T02:45:40.531Z,6.6
2018-01-29T02:46:41.131Z,6.6
2018-01-29T02:47:41.819Z,6.59
2018-01-29T02:48:39.359Z,6.62
2018-01-29T02:49:40.339Z,6.59
2018-01-29T02:50:39.362Z,6.62
2018-01-29T02:51:40.080Z,6.63
2018-01-29T02:52:39.587Z,6.61
2018-01-29T02:53:39.541Z,6.58
2018-01-29T02:54:39.627Z,6.63
2018-01-29T02:55:42.106Z,6.62
2018-01-29T02:56:42.341Z,6.61
2018-01-29T02:57:40.416Z,6.61
2018-01-29T02:58:41.011Z,6.59
2018-01-29T02:59:40.828Z,6.63
2018-01-29T03:00:40.958Z,6.6
2018-01-29T03:01:40.685Z,6.62
2018-01-29T03:02:40.101Z,6.65
2018-01-29T03:03:40.586Z,6.61
2018-01-29T03:04:40.965Z,6.6
2018-01-29T03:05:40.201Z,6.66
2018-01-29T03:06:41.514Z,6.64
2018-01-29T03:07:39.461Z,6.6
2018-01-29T03:08:39.188Z,6.63
2018-01-29T03:09:41.104Z,6.63
2018-01-29T03:10:39.553Z,6.62
2018-01-29T03:11:39.173Z,6.64
2018-01-29T03:12:39.404Z,6.64
2018-01-29T03:13:39.279Z,6.6
2018-01-29T03:14:39.792Z,6.63
2018-01-29T03:15:40.502Z,6.63
2018-01-29T03:16:40.507Z,6.61
2018-01-29T03:17:40.158Z,6.6
2018-01-29T03:18:40.131Z,6.62
2018-01-29T03:19:39.432Z,6.66
2018-01-29T03:20:39.499Z,6.62
2018-01-29T03:21:39.572Z,6.62
2018-01-29T03:22:41.296Z,6.62
2018-01-29T03:23:40.046Z,6.66
2018-01-29T03:24:39.487Z,6.65
2018-01-29T03:25:39.803Z,6.64
2018-01-29T03:26:41.352Z,6.68
2018-01-29T03:27:39.486Z,6.65
2018-01-29T03:28:39.915Z,6.64
2018-01-29T03:29:40.905Z,6.65
2018-01-29T03:30:39.776Z,6.67
2018-01-29T03:31:40.027Z,6.69
2018-01-29T03:32:40.314Z,6.65
2018-01-29T03:33:39.540Z,6.67
2018-01-29T03:34:39.363Z,6.67
2018-01-29T03:35:40.528Z,6.66
2018-01-29T03:36:39.594Z,6.68
2018-01-29T03:37:40.323Z,6.68
2018-01-29T03:38:40.704Z,6.66
2018-01-29T03:39:41.494Z,6.66
2018-01-29T03:40:40.395Z,6.67
2018-01-29T03:41:39.295Z,6.66
2018-01-29T03:42:42.664Z,6.7
2018-01-29T03:43:39.341Z,6.65
2018-01-29T03:44:39.277Z,6.68
2018-01-29T03:45:40.427Z,6.68
2018-01-29T03:46:39.188Z,6.69
2018-01-29T03:47:39.367Z,6.69
2018-01-29T03:48:39.748Z,6.7
2018-01-29T03:49:39.548Z,6.65
2018-01-29T03:50:40.445Z,6.69
2018-01-29T03:51:40.299Z,6.69
2018-01-29T03:52:40.961Z,6.69
2018-01-29T03:53:41.548Z,6.7
2018-01-29T03:54:40.176Z,6.71
2018-01-29T03:55:39.967Z,6.72
2018-01-29T03:56:40.345Z,6.71
2018-01-29T03:57:40.897Z,6.71
2018-01-29T03:58:42.074Z,6.73
2018-01-29T03:59:41.130Z,6.71
2018-01-29T04:00:39.633Z,6.73
2018-01-29T04:01:40.641Z,6.74
2018-01-29T04:02:41.114Z,6.71
2018-01-29T04:03:39.607Z,6.74
2018-01-29T04:04:39.967Z,6.69
2018-01-29T04:05:40.374Z,6.7
2018-01-29T04:06:40.416Z,6.72
2018-01-29T04:07:40.299Z,6.71
2018-01-29T04:08:40.840Z,6.72
2018-01-29T04:09:40.475Z,6.74
2018-01-29T04:10:40.432Z,6.74
2018-01-29T04:11:39.639Z,6.72
2018-01-29T04:12:40.191Z,6.72
2018-01-29T04:13:40.837Z,6.74
2018-01-29T04:14:40.137Z,6.73
2018-01-29T04:15:40.134Z,6.74
2018-01-29T04:16:41.024Z,6.72
2018-01-29T04:17:40.352Z,6.71
2018-01-29T04:18:40.377Z,6.69
2018-01-29T04:19:40.882Z,6.7
2018-01-29T04:20:39.630Z,6.67
2018-01-29T04:21:39.732Z,6.65
2018-01-29T04:22:41.844Z,6.67
2018-01-29T04:23:39.573Z,6.66
2018-01-29T04:24:39.677Z,6.67
2018-01-29T04:25:40.835Z,6.64
2018-01-29T04:26:40.223Z,6.69
2018-01-29T04:27:40.158Z,6.66
2018-01-29T04:28:40.465Z,6.65
2018-01-29T04:29:40.676Z,6.65
2018-01-29T04:30:40.394Z,6.65
2018-01-29T04:31:40.699Z,6.66
2018-01-29T04:32:40.904Z,6.66
2018-01-29T04:33:39.509Z,6.63
2018-01-29T04:34:42.230Z,6.61
2018-01-29T04:35:39.864Z,6.64
2018-01-29T04:36:40.846Z,6.63
2018-01-29T04:37:41.732Z,6.64
2018-01-29T04:38:40.078Z,6.64
2018-01-29T04:39:40.058Z,6.6
2018-01-29T04:40:41.696Z,6.63
2018-01-29T04:41:41.358Z,6.57
2018-01-29T04:42:40.376Z,6.61
2018-01-29T04:43:43.102Z,6.6
2018-01-29T04:44:39.858Z,6.58
2018-01-29T04:45:40.242Z,6.62
2018-01-29T04:46:40.895Z,6.58
2018-01-29T04:47:40.037Z,6.61
2018-01-29T04:48:39.507Z,6.61
2018-01-29T04:49:39.694Z,6.6
2018-01-29T04:50:41.810Z,6.6
2018-01-29T04:51:40.906Z,6.57
2018-01-29T04:52:39.488Z,6.57
2018-01-29T04:53:40.491Z,6.58
2018-01-29T04:54:40.700Z,6.57
2018-01-29T04:55:40.045Z,6.59
2018-01-29T04:56:40.428Z,6.58
2018-01-29T04:57:41.644Z,6.59
2018-01-29T04:58:42.308Z,6.58
2018-01-29T04:59:41.129Z,6.57
2018-01-29T05:00:40.422Z,6.57
2018-01-29T05:01:39.653Z,6.6
2018-01-29T05:02:39.708Z,6.57
2018-01-29T05:03:40.298Z,6.57
2018-01-29T05:04:40.398Z,6.59
2018-01-29T05:05:39.594Z,6.6
2018-01-29T05:06:44.489Z,6.59
2018-01-29T05:07:40.775Z,6.59
2018-01-29T05:08:39.504Z,6.58
2018-01-29T05:09:39.718Z,6.58
2018-01-29T05:10:41.222Z,6.56
2018-01-29T05:11:40.168Z,6.59
2018-01-29T05:15:40.986Z,6.56
2018-01-29T05:16:40.452Z,6.58
2018-01-29T05:17:40.371Z,6.58
2018-01-29T05:18:40.169Z,6.56
2018-01-29T05:19:43.051Z,6.54
2018-01-29T05:20:40.545Z,6.55
2018-01-29T05:21:40.852Z,6.59
2018-01-29T05:22:39.392Z,6.55
2018-01-29T05:23:41.162Z,6.56
2018-01-29T05:24:41.133Z,6.57
2018-01-29T05:25:42.403Z,6.56
2018-01-29T05:26:40.885Z,6.56
2018-01-29T05:27:40.121Z,6.59
2018-01-29T05:28:40.193Z,6.62
2018-01-29T05:29:40.918Z,6.58
2018-01-29T05:30:39.823Z,6.59
2018-01-29T05:31:41.837Z,6.58
2018-01-29T05:32:40.093Z,6.57
2018-01-29T05:33:41.477Z,6.57
2018-01-29T05:34:39.684Z,6.57
2018-01-29T05:35:39.599Z,6.56
2018-01-29T05:36:40.268Z,6.6
2018-01-29T05:37:40.660Z,6.56
2018-01-29T05:38:40.326Z,6.58
2018-01-29T05:39:40.941Z,6.6
2018-01-29T05:40:40.929Z,6.58
2018-01-29T05:41:40.849Z,6.6
2018-01-29T05:42:40.211Z,6.59
2018-01-29T05:43:39.608Z,6.58
2018-01-29T05:44:39.796Z,6.59
2018-01-29T05:45:39.958Z,6.57
2018-01-29T05:46:41.037Z,6.57
2018-01-29T05:47:41.837Z,6.57
2018-01-29T05:48:39.793Z,6.57
2018-01-29T05:49:41.608Z,6.56
2018-01-29T05:50:40.579Z,6.55
2018-01-29T05:51:40.651Z,6.57
2018-01-29T05:52:40.548Z,6.57
2018-01-29T05:53:39.593Z,6.58
2018-01-29T05:54:41.878Z,6.55
2018-01-29T05:55:39.689Z,6.56
2018-01-29T05:56:41.173Z,6.55
2018-01-29T05:57:39.996Z,6.54
2018-01-29T05:58:41.415Z,6.56
2018-01-29T06:02:00.461Z,6.58
2018-01-29T06:02:41.769Z,6.56
2018-01-29T06:03:40.153Z,6.57
2018-01-29T06:04:40.432Z,6.56
2018-01-29T06:05:40.126Z,6.55
2018-01-29T06:06:40.282Z,6.57
2018-01-29T06:07:41.733Z,6.55
2018-01-29T06:08:41.083Z,6.56
2018-01-29T06:09:40.888Z,6.58
2018-01-29T06:10:42.369Z,6.57
2018-01-29T06:11:43.215Z,6.55
2018-01-29T06:12:40.304Z,6.56
2018-01-29T06:13:41.022Z,6.52
2018-01-29T06:14:42.646Z,6.54
2018-01-29T06:15:40.057Z,6.59
2018-01-29T06:16:43.679Z,6.55
2018-01-29T06:17:40.390Z,6.53
2018-01-29T06:18:43.429Z,6.52
2018-01-29T06:19:40.210Z,6.55
2018-01-29T06:20:42.650Z,6.55
2018-01-29T06:21:41.566Z,6.55
2018-01-29T06:22:41.345Z,6.59
2018-01-29T06:23:40.749Z,6.53
2018-01-29T06:24:40.654Z,6.54
2018-01-29T06:25:41.573Z,6.55
2018-01-29T06:26:42.576Z,6.53
2018-01-29T06:27:40.291Z,6.52
2018-01-29T06:28:41.465Z,6.55
2018-01-29T06:29:40.176Z,6.52
2018-01-29T06:30:40.146Z,6.49
2018-01-29T06:31:41.300Z,6.5
2018-01-29T06:32:41.582Z,6.51
2018-01-29T06:33:40.911Z,6.5
2018-01-29T06:34:39.190Z,6.52
2018-01-29T06:35:40.507Z,6.53
2018-01-29T06:36:39.171Z,6.53
2018-01-29T06:37:39.290Z,6.49
2018-01-29T06:38:39.550Z,6.5
2018-01-29T06:39:39.201Z,6.53
2018-01-29T06:40:39.181Z,6.5
2018-01-29T06:41:39.059Z,6.52
2018-01-29T06:42:39.314Z,6.52
2018-01-29T06:43:39.342Z,6.52
2018-01-29T06:44:39.104Z,6.51
2018-01-29T06:45:39.122Z,6.52
2018-01-29T06:46:39.142Z,6.54
2018-01-29T06:47:39.260Z,6.51
2018-01-29T06:48:39.083Z,6.55
2018-01-29T06:49:39.105Z,6.53
2018-01-29T06:50:39.214Z,6.55
2018-01-29T06:51:39.309Z,6.55
2018-01-29T06:52:39.307Z,6.53
2018-01-29T06:53:39.349Z,6.52
2018-01-29T06:54:39.868Z,6.53
2018-01-29T06:55:39.308Z,6.52
2018-01-29T06:56:39.327Z,6.55
2018-01-29T06:57:39.281Z,6.54
2018-01-29T06:58:39.408Z,6.55
2018-01-29T06:59:39.278Z,6.55
2018-01-29T07:00:39.288Z,6.53
2018-01-29T07:01:39.315Z,6.57
2018-01-29T07:02:39.310Z,6.56
2018-01-29T07:03:39.715Z,6.57
2018-01-29T07:04:39.437Z,6.57
2018-01-29T07:05:39.437Z,6.55
2018-01-29T07:06:39.587Z,6.56
2018-01-29T07:07:39.710Z,6.59
2018-01-29T07:08:39.609Z,6.56
2018-01-29T07:09:39.506Z,6.56
2018-01-29T07:10:39.371Z,6.58
2018-01-29T07:11:39.524Z,6.59
2018-01-29T07:12:39.537Z,6.59
2018-01-29T07:13:39.565Z,6.59
2018-01-29T07:14:39.415Z,6.58
2018-01-29T07:15:39.363Z,6.62
2018-01-29T07:16:39.448Z,6.59
2018-01-29T07:17:39.491Z,6.59
2018-01-29T07:18:39.586Z,6.62
2018-01-29T07:19:39.546Z,6.62
2018-01-29T07:20:39.599Z,6.63
2018-01-29T07:21:39.492Z,6.62
2018-01-29T07:22:39.893Z,6.64
2018-01-29T07:23:39.792Z,6.64
2018-01-29T07:24:39.939Z,6.65
2018-01-29T07:25:39.751Z,6.64
2018-01-29T07:26:39.834Z,6.68
2018-01-29T07:27:39.444Z,6.64
2018-01-29T07:28:39.517Z,6.68
2018-01-29T07:29:39.324Z,6.63
2018-01-29T07:30:39.580Z,6.67
2018-01-29T07:31:39.512Z,6.68
2018-01-29T07:32:39.421Z,6.68
2018-01-29T07:33:39.807Z,6.65
2018-01-29T07:34:39.622Z,6.69
2018-01-29T07:35:39.594Z,6.66
2018-01-29T07:36:39.767Z,6.69
2018-01-29T07:37:39.644Z,6.7
2018-01-29T07:38:39.556Z,6.73
2018-01-29T07:39:39.760Z,6.72
2018-01-29T07:40:39.728Z,6.73
2018-01-29T07:41:39.429Z,6.71
2018-01-29T07:42:39.884Z,6.7
2018-01-29T07:43:39.698Z,6.69
2018-01-29T07:44:39.845Z,6.74
2018-01-29T07:45:39.824Z,6.73
2018-01-29T07:46:39.822Z,6.7
2018-01-29T07:47:39.698Z,6.67
2018-01-29T07:48:39.908Z,6.69
2018-01-29T07:49:39.813Z,6.66
2018-01-29T07:50:39.953Z,6.71
2018-01-29T07:51:39.947Z,6.7
2018-01-29T07:52:39.919Z,6.72
2018-01-29T07:53:39.981Z,6.69
2018-01-29T07:54:39.907Z,6.72
2018-01-29T07:55:39.992Z,6.71
2018-01-29T07:56:39.909Z,6.72
2018-01-29T07:57:39.826Z,6.74
2018-01-29T07:58:39.832Z,6.72
2018-01-29T07:59:39.736Z,6.76
2018-01-29T08:00:39.762Z,6.74
2018-01-29T08:01:39.769Z,6.72
2018-01-29T08:02:39.744Z,6.71
2018-01-29T08:03:39.956Z,6.72
2018-01-29T08:04:39.849Z,6.71
2018-01-29T08:05:39.867Z,6.73
2018-01-29T08:06:39.788Z,6.74
2018-01-29T08:07:39.926Z,6.76
2018-01-29T08:08:39.806Z,6.75
2018-01-29T08:09:39.934Z,6.77
2018-01-29T08:10:40.015Z,6.76
2018-01-29T08:11:40.125Z,6.78
2018-01-29T08:12:39.875Z,6.78
2018-01-29T08:13:39.814Z,6.77
2018-01-29T08:14:39.812Z,6.76
2018-01-29T08:15:39.873Z,6.76
2018-01-29T08:16:39.828Z,6.73
2018-01-29T08:17:39.770Z,6.77
2018-01-29T08:18:39.878Z,6.74
2018-01-29T08:19:39.756Z,6.81
2018-01-29T08:20:39.815Z,6.78
2018-01-29T08:21:39.865Z,6.8
2018-01-29T08:22:39.904Z,6.78
2018-01-29T08:23:39.924Z,6.83
2018-01-29T08:24:39.753Z,6.78
2018-01-29T08:25:39.796Z,6.79
2018-01-29T08:26:39.804Z,6.8
2018-01-29T08:27:39.915Z,6.82
2018-01-29T08:28:40.045Z,6.85
2018-01-29T08:29:39.698Z,6.83
2018-01-29T08:30:39.822Z,6.87
2018-01-29T08:31:39.965Z,6.85
2018-01-29T08:32:39.881Z,6.86
2018-01-29T08:33:40.147Z,6.85
2018-01-29T08:34:39.865Z,6.87
2018-01-29T08:35:39.928Z,6.92
2018-01-29T08:36:40.112Z,6.89
2018-01-29T08:37:39.843Z,6.91
2018-01-29T08:38:39.874Z,6.88
2018-01-29T08:39:39.845Z,6.88
2018-01-29T08:40:39.881Z,6.85
2018-01-29T08:41:39.927Z,6.84
2018-01-29T08:42:39.819Z,6.88
2018-01-29T08:43:40.053Z,6.86
2018-01-29T08:44:39.812Z,6.83
2018-01-29T08:45:39.930Z,6.86
2018-01-29T08:46:39.838Z,6.81
2018-01-29T08:47:39.860Z,6.84
2018-01-29T08:48:40.000Z,6.88
2018-01-29T08:49:39.845Z,6.87
2018-01-29T08:50:39.846Z,6.85
2018-01-29T08:51:39.836Z,6.82
2018-01-29T08:52:40.390Z,6.87
2018-01-29T08:53:39.938Z,6.84
2018-01-29T08:54:39.946Z,6.86
2018-01-29T08:55:39.881Z,6.88
2018-01-29T08:56:39.911Z,6.82
2018-01-29T08:57:39.993Z,6.83
2018-01-29T08:58:40.123Z,6.85
2018-01-29T08:59:39.973Z,6.8
2018-01-29T09:00:40.911Z,6.84
2018-01-29T09:01:39.824Z,6.79
2018-01-29T09:02:39.882Z,6.84
2018-01-29T09:03:39.965Z,6.84
2018-01-29T09:04:39.870Z,6.84
2018-01-29T09:05:40.346Z,6.83
2018-01-29T09:06:40.213Z,6.81
2018-01-29T09:07:40.105Z,6.81
2018-01-29T09:08:39.810Z,6.72
2018-01-29T09:09:39.918Z,6.78
2018-01-29T09:10:40.411Z,6.78
2018-01-29T09:11:40.045Z,6.79
2018-01-29T09:12:40.026Z,6.79
2018-01-29T09:13:39.883Z,6.76
2018-01-29T09:14:39.971Z,6.75
2018-01-29T09:15:39.966Z,6.74
2018-01-29T09:16:40.073Z,6.76
2018-01-29T09:17:40.012Z,6.77
2018-01-29T09:18:40.064Z,6.77
2018-01-29T09:19:39.853Z,6.76
2018-01-29T09:20:39.852Z,6.76
2018-01-29T09:21:40.023Z,6.74
2018-01-29T09:22:40.024Z,6.8
2018-01-29T09:23:39.898Z,6.78
2018-01-29T09:24:40.008Z,6.78
2018-01-29T09:25:40.027Z,6.79
2018-01-29T09:26:39.823Z,6.77
2018-01-29T09:27:40.048Z,6.76
2018-01-29T09:28:40.008Z,6.79
2018-01-29T09:29:40.058Z,6.77
2018-01-29T09:30:39.983Z,6.79
2018-01-29T09:31:40.059Z,6.79
2018-01-29T09:32:40.023Z,6.81
2018-01-29T09:33:40.160Z,6.78
2018-01-29T09:34:39.965Z,6.79
2018-01-29T09:35:39.966Z,6.81
2018-01-29T09:36:40.040Z,6.82
2018-01-29T09:37:40.138Z,6.82
2018-01-29T09:38:40.552Z,6.84
2018-01-29T09:39:40.120Z,6.81
2018-01-29T09:40:41.041Z,6.83
2018-01-29T09:41:40.368Z,6.85
2018-01-29T09:42:40.650Z,6.84
2018-01-29T09:43:40.273Z,6.85
2018-01-29T09:44:40.597Z,6.84
2018-01-29T09:45:40.297Z,6.83
2018-01-29T09:46:40.016Z,6.85
2018-01-29T09:47:39.855Z,6.85
2018-01-29T09:48:39.973Z,6.88
2018-01-29T09:49:40.163Z,6.87
2018-01-29T09:50:39.992Z,6.9
2018-01-29T09:51:40.513Z,6.89
2018-01-29T09:52:40.059Z,6.88
2018-01-29T09:53:40.336Z,6.89
2018-01-29T09:54:40.052Z,6.88
2018-01-29T09:55:40.042Z,6.9
2018-01-29T09:56:40.440Z,6.88
2018-01-29T09:57:40.436Z,6.93
2018-01-29T09:58:40.782Z,6.9
2018-01-29T09:59:39.975Z,6.92
2018-01-29T10:00:40.322Z,6.94
2018-01-29T10:01:40.471Z,6.93
2018-01-29T10:02:39.987Z,6.91
2018-01-29T10:03:40.223Z,6.92
2018-01-29T10:04:39.997Z,6.9
2018-01-29T10:05:39.865Z,6.94
2018-01-29T10:06:40.037Z,6.92
2018-01-29T10:07:39.951Z,6.94
2018-01-29T10:08:39.887Z,6.97
2018-01-29T10:09:39.699Z,6.91
2018-01-29T10:10:39.900Z,6.9
2018-01-29T10:11:39.637Z,6.92
2018-01-29T10:12:39.828Z,6.91
2018-01-29T10:13:39.793Z,6.91
2018-01-29T10:14:39.720Z,6.91
2018-01-29T10:15:39.806Z,6.9
2018-01-29T10:16:39.865Z,6.9
2018-01-29T10:17:39.947Z,6.89
2018-01-29T10:18:39.978Z,6.91
2018-01-29T10:19:39.853Z,6.88
2018-01-29T10:20:40.068Z,6.89
2018-01-29T10:21:39.959Z,6.9
2018-01-29T10:22:39.996Z,6.87
2018-01-29T10:23:39.978Z,6.87
2018-01-29T10:24:40.010Z,6.9
2018-01-29T10:25:39.937Z,6.88
2018-01-29T10:26:39.894Z,6.88
2018-01-29T10:27:40.002Z,6.87
2018-01-29T10:28:39.838Z,6.91
2018-01-29T10:29:39.839Z,6.94
2018-01-29T10:30:39.701Z,6.94
2018-01-29T10:31:39.723Z,6.93
2018-01-29T10:32:40.025Z,6.92
2018-01-29T10:33:39.933Z,6.91
2018-01-29T10:34:39.906Z,6.89
2018-01-29T10:35:40.087Z,6.91
2018-01-29T10:36:39.782Z,6.89
2018-01-29T10:37:39.826Z,6.88
2018-01-29T10:38:39.888Z,6.95
2018-01-29T10:39:40.007Z,6.93
2018-01-29T10:40:39.844Z,6.97
2018-01-29T10:41:39.846Z,6.92
2018-01-29T10:42:40.100Z,6.94
2018-01-29T10:43:39.976Z,6.96
2018-01-29T10:44:39.972Z,6.95
2018-01-29T10:45:39.988Z,6.99
2018-01-29T10:46:40.009Z,6.94
2018-01-29T10:47:40.098Z,6.94
2018-01-29T10:48:39.938Z,6.96
2018-01-29T10:49:40.372Z,6.98
2018-01-29T10:50:40.028Z,6.97
2018-01-29T10:51:39.964Z,6.93
2018-01-29T10:52:39.780Z,6.96
2018-01-29T10:53:40.086Z,6.94
2018-01-29T10:54:39.927Z,6.96
2018-01-29T10:55:40.009Z,6.93
2018-01-29T10:56:39.846Z,6.95
2018-01-29T11:00:40.309Z,6.95
2018-01-29T11:01:39.944Z,6.95
2018-01-29T11:02:40.058Z,6.97
2018-01-29T11:03:40.382Z,6.95
2018-01-29T11:04:40.171Z,6.98
2018-01-29T11:05:40.760Z,6.98
2018-01-29T11:06:40.070Z,6.95
2018-01-29T11:07:40.179Z,6.91
2018-01-29T11:08:40.057Z,6.92
2018-01-29T11:09:40.382Z,6.92
2018-01-29T11:10:40.448Z,6.96
2018-01-29T11:11:40.196Z,6.95
2018-01-29T11:12:39.933Z,6.95
2018-01-29T11:13:40.199Z,6.92
2018-01-29T11:14:40.700Z,6.91
2018-01-29T11:15:40.213Z,6.91
2018-01-29T11:16:40.244Z,6.92
2018-01-29T11:17:40.186Z,6.94
2018-01-29T11:18:40.154Z,6.96
2018-01-29T11:19:40.246Z,6.89
2018-01-29T11:20:40.085Z,6.95
2018-01-29T11:21:40.184Z,6.97
2018-01-29T11:22:40.057Z,6.99
2018-01-29T11:23:40.130Z,6.96
2018-01-29T11:24:40.218Z,6.93
2018-01-29T11:25:40.045Z,6.93
2018-01-29T11:26:40.196Z,6.95
2018-01-29T11:27:40.378Z,6.9
2018-01-29T11:28:40.051Z,6.91
2018-01-29T11:29:40.297Z,6.9
2018-01-29T11:30:40.097Z,6.95
2018-01-29T11:31:40.276Z,6.94
2018-01-29T11:32:40.159Z,6.89
2018-01-29T11:33:40.427Z,6.92
2018-01-29T11:34:40.436Z,6.99
2018-01-29T11:35:40.078Z,6.98
2018-01-29T11:36:40.164Z,6.93
2018-01-29T11:37:40.045Z,6.92
2018-01-29T11:38:40.223Z,6.94
2018-01-29T11:39:40.222Z,6.87
2018-01-29T11:40:40.020Z,6.88
2018-01-29T11:41:40.055Z,6.91
2018-01-29T11:42:40.258Z,6.86
2018-01-29T11:43:40.378Z,6.86
2018-01-29T11:44:40.257Z,6.91
2018-01-29T11:45:40.197Z,6.93
2018-01-29T11:46:40.316Z,6.9
2018-01-29T11:47:40.388Z,6.82
2018-01-29T11:48:40.424Z,6.87
2018-01-29T11:49:40.414Z,6.9
2018-01-29T11:50:40.149Z,6.9
2018-01-29T11:51:40.291Z,6.91
2018-01-29T11:52:40.361Z,6.92
2018-01-29T11:53:40.238Z,6.95
2018-01-29T11:54:40.387Z,6.93
2018-01-29T11:55:40.031Z,6.95
2018-01-29T11:56:40.093Z,6.92
2018-01-29T11:57:40.002Z,6.92
2018-01-29T11:58:40.328Z,6.9
2018-01-29T12:00:39.998Z,6.95
2018-01-29T12:01:40.006Z,6.95
2018-01-29T12:02:40.294Z,6.92
2018-01-29T12:03:40.958Z,6.97
2018-01-29T12:04:39.355Z,6.97
2018-01-29T12:05:39.464Z,6.95
2018-01-29T12:06:39.961Z,6.98
2018-01-29T12:07:39.331Z,7
2018-01-29T12:08:39.464Z,6.98
2018-01-29T12:09:39.476Z,6.95
2018-01-29T12:10:39.562Z,6.96
2018-01-29T12:11:39.425Z,6.97
2018-01-29T12:12:39.766Z,6.96
2018-01-29T12:13:39.315Z,6.95
2018-01-29T12:14:39.413Z,6.98
2018-01-29T12:15:39.614Z,6.98
2018-01-29T12:16:39.364Z,7
2018-01-29T12:17:39.633Z,7.01
2018-01-29T12:18:39.635Z,7
2018-01-29T12:19:39.437Z,6.98
2018-01-29T12:20:39.508Z,6.99
2018-01-29T12:21:39.537Z,7.01
2018-01-29T12:22:39.513Z,7.01
2018-01-29T12:23:39.495Z,7.02
2018-01-29T12:24:39.472Z,7.03
2018-01-29T12:25:39.467Z,7.06
2018-01-29T12:26:39.518Z,7.05
2018-01-29T12:27:39.493Z,7.05
2018-01-29T12:28:39.490Z,7.07
2018-01-29T12:29:39.362Z,7.05
2018-01-29T12:30:39.464Z,7.03
2018-01-29T12:31:39.746Z,7.05
2018-01-29T12:32:39.427Z,7.08
2018-01-29T12:33:39.985Z,7.09
2018-01-29T12:34:39.755Z,7.1
2018-01-29T12:35:39.912Z,7.04
2018-01-29T12:36:39.683Z,7.08
2018-01-29T12:37:39.671Z,7.09
2018-01-29T12:38:39.537Z,7.12
2018-01-29T12:39:39.669Z,7.12
2018-01-29T12:40:39.560Z,7.09
2018-01-29T12:41:39.565Z,7.12
2018-01-29T12:42:39.562Z,7.11
2018-01-29T12:43:39.590Z,7.11
2018-01-29T12:44:39.781Z,7.14
2018-01-29T12:45:39.557Z,7.18
2018-01-29T12:46:39.945Z,7.22
2018-01-29T12:47:39.989Z,7.21
2018-01-29T12:48:39.726Z,7.22
2018-01-29T12:49:39.861Z,7.2
2018-01-29T12:50:39.678Z,7.2
2018-01-29T12:51:40.058Z,7.21
2018-01-29T12:52:39.802Z,7.2
2018-01-29T12:53:39.752Z,7.17
2018-01-29T12:54:39.875Z,7.18
2018-01-29T12:55:39.675Z,7.17
2018-01-29T12:56:39.631Z,7.2
2018-01-29T12:57:39.516Z,7.16
2018-01-29T12:58:39.618Z,7.17
2018-01-29T12:59:39.854Z,7.18
2018-01-29T13:00:39.687Z,7.21
2018-01-29T13:01:39.557Z,7.23
2018-01-29T13:02:39.702Z,7.24
2018-01-29T13:03:39.841Z,7.25
2018-01-29T13:04:40.058Z,7.23
2018-01-29T13:05:39.793Z,7.22
2018-01-29T13:06:39.620Z,7.22
2018-01-29T13:07:39.871Z,7.22
2018-01-29T13:08:39.919Z,7.2
2018-01-29T13:09:39.989Z,7.2
2018-01-29T13:10:40.053Z,7.2
2018-01-29T13:11:39.803Z,7.2
2018-01-29T13:12:39.690Z,7.21
2018-01-29T13:13:39.664Z,7.24
2018-01-29T13:14:39.670Z,7.17
2018-01-29T13:15:40.015Z,7.21
2018-01-29T13:16:39.741Z,7.25
2018-01-29T13:17:39.892Z,7.25
2018-01-29T13:18:39.642Z,7.27
2018-01-29T13:19:39.647Z,7.24
2018-01-29T13:20:40.050Z,7.27
2018-01-29T13:21:39.877Z,7.26
2018-01-29T13:22:39.883Z,7.26
2018-01-29T13:23:39.814Z,7.24
2018-01-29T13:24:39.821Z,7.24
2018-01-29T13:25:39.860Z,7.22
2018-01-29T13:26:39.626Z,7.21
2018-01-29T13:27:39.746Z,7.24
2018-01-29T13:28:39.583Z,7.28
2018-01-29T13:29:40.038Z,7.28